Time;durP1;ratioP1;P1;durP2;ratioP2;P2;SDS_P1;SDS_P2;PMS_P1;PMS_P2;Temp;Humidity;BMP_temperature;BMP_pressure;BME280_temperature;BME280_humidity;BME280_pressure;Samples;Min_cycle;Max_cycle;Signal;HPM_P1;HPM_P2
2023/03/28 00:01:56;;;;;;;8.05;1.40;;;2.80;99.90;;;;;;5003228;28;20034;-73
2023/03/28 00:04:22;;;;;;;3.80;0.85;;;2.80;99.90;;;;;;5000929;28;20033;-73
2023/03/28 00:06:52;;;;;;;6.07;1.13;;;2.80;99.90;;;;;;4998119;28;20032;-72
2023/03/28 00:09:19;;;;;;;4.22;0.85;;;2.80;99.90;;;;;;5002655;28;20436;-73
2023/03/28 00:11:46;;;;;;;6.88;0.82;;;2.80;99.90;;;;;;4998912;28;20029;-72
2023/03/28 00:14:13;;;;;;;8.15;1.20;;;2.70;99.90;;;;;;5001405;28;20034;-74
2023/03/28 00:16:44;;;;;;;7.20;1.00;;;2.70;99.90;;;;;;5011490;28;20034;-73
2023/03/28 00:19:14;;;;;;;4.45;1.02;;;2.70;99.90;;;;;;5004698;28;20033;-76
2023/03/28 00:21:45;;;;;;;8.82;1.00;;;2.70;99.90;;;;;;4999360;28;20564;-72
2023/03/28 00:24:13;;;;;;;5.68;1.40;;;2.70;99.90;;;;;;5010948;28;20041;-73
2023/03/28 00:26:40;;;;;;;7.57;0.90;;;2.70;99.90;;;;;;5030641;28;20589;-74
2023/03/28 00:29:09;;;;;;;7.90;0.95;;;2.70;99.90;;;;;;5007081;28;20034;-72
2023/03/28 00:31:37;;;;;;;4.63;0.95;;;2.70;99.90;;;;;;5005280;28;20026;-72
2023/03/28 00:34:05;;;;;;;9.15;0.90;;;2.60;99.90;;;;;;5006746;28;20543;-73
2023/03/28 00:36:31;;;;;;;8.50;0.95;;;2.60;99.90;;;;;;5031951;28;20033;-75
2023/03/28 00:39:09;;;;;;;5.78;0.90;;;2.60;99.90;;;;;;5007623;28;20040;-72
2023/03/28 00:41:38;;;;;;;5.05;0.80;;;2.60;99.90;;;;;;5004947;28;20049;-72
2023/03/28 00:44:56;;;;;;;4.13;0.80;;;2.60;99.90;;;;;;5006682;28;20041;-73
2023/03/28 00:47:35;;;;;;;7.45;0.90;;;2.60;99.90;;;;;;4994043;28;20132;-73
2023/03/28 00:50:04;;;;;;;4.88;1.02;;;2.60;99.90;;;;;;5004824;28;20026;-73
2023/03/28 00:52:41;;;;;;;6.95;1.08;;;2.60;99.90;;;;;;5004284;28;20030;-72
2023/03/28 00:55:13;;;;;;;5.93;0.88;;;2.60;99.90;;;;;;4998022;28;20116;-73
2023/03/28 00:57:40;;;;;;;6.72;1.08;;;2.50;99.90;;;;;;4999210;28;20521;-71
2023/03/28 01:00:11;;;;;;;4.72;0.70;;;2.50;99.90;;;;;;5010907;28;20030;-72
2023/03/28 01:02:44;;;;;;;7.22;1.30;;;2.50;99.90;;;;;;4998439;28;20022;-73
2023/03/28 01:05:12;;;;;;;2.75;0.70;;;2.50;99.90;;;;;;4999061;28;20092;-72
2023/03/28 01:07:44;;;;;;;7.13;0.60;;;2.50;99.90;;;;;;4999645;28;20050;-72
2023/03/28 01:10:10;;;;;;;4.88;0.52;;;2.40;99.90;;;;;;4999530;28;20034;-72
2023/03/28 01:12:37;;;;;;;4.45;0.60;;;2.50;99.90;;;;;;5003652;28;20560;-72
2023/03/28 01:15:03;;;;;;;5.18;1.33;;;2.40;99.90;;;;;;4984088;28;20103;-73
2023/03/28 01:17:29;;;;;;;4.70;0.80;;;2.40;99.90;;;;;;5007062;28;20510;-74
2023/03/28 01:19:58;;;;;;;3.47;0.75;;;2.40;99.90;;;;;;5004517;28;20057;-74
2023/03/28 01:22:45;;;;;;;3.67;0.80;;;2.40;99.90;;;;;;5006543;28;20030;-72
2023/03/28 01:25:32;;;;;;;10.10;0.75;;;2.30;99.90;;;;;;5005039;28;20037;-72
2023/03/28 01:28:12;;;;;;;8.18;0.90;;;2.30;99.90;;;;;;5021591;28;21368;-73
2023/03/28 01:30:52;;;;;;;4.45;0.95;;;2.30;99.90;;;;;;5004068;28;20038;-72
2023/03/28 01:33:30;;;;;;;3.50;0.60;;;2.20;99.90;;;;;;5008022;28;20033;-73
2023/03/28 01:36:12;;;;;;;4.00;0.68;;;2.20;99.90;;;;;;5026252;28;20065;-72
2023/03/28 01:38:49;;;;;;;5.53;0.57;;;2.20;99.90;;;;;;5007297;28;20398;-73
2023/03/28 01:41:47;;;;;;;5.90;2.22;;;2.10;99.90;;;;;;5004895;28;20026;-72
2023/03/28 01:44:23;;;;;;;5.22;1.08;;;2.20;99.90;;;;;;5005170;28;20068;-73
2023/03/28 01:47:25;;;;;;;5.10;1.00;;;2.10;99.90;;;;;;5026535;28;22227;-72
2023/03/28 01:50:02;;;;;;;3.63;0.82;;;2.10;99.90;;;;;;4994288;28;21050;-73
2023/03/28 01:52:41;;;;;;;3.67;0.65;;;2.10;99.90;;;;;;5004134;28;20565;-72
2023/03/28 01:55:26;;;;;;;5.88;0.93;;;2.10;99.90;;;;;;5004292;28;20022;-73
2023/03/28 01:58:27;;;;;;;1.83;0.80;;;1.90;99.90;;;;;;5035904;28;20568;-74
2023/03/28 02:01:04;;;;;;;6.68;1.00;;;1.90;99.90;;;;;;5014803;28;20018;-73
2023/03/28 02:03:36;;;;;;;4.32;0.88;;;1.90;99.90;;;;;;5016827;28;20041;-73
2023/03/28 02:06:07;;;;;;;2.13;0.60;;;1.90;99.90;;;;;;5012740;28;20026;-71
2023/03/28 02:08:39;;;;;;;4.38;0.73;;;1.90;99.90;;;;;;5010415;28;20030;-73
2023/03/28 02:11:07;;;;;;;3.33;0.60;;;1.90;99.90;;;;;;5007698;28;20076;-72
2023/03/28 02:13:39;;;;;;;3.50;0.60;;;1.90;99.90;;;;;;5005537;28;20041;-72
2023/03/28 02:16:07;;;;;;;2.78;0.80;;;1.90;99.90;;;;;;5007017;28;20034;-73
2023/03/28 02:18:37;;;;;;;2.45;0.70;;;1.90;99.90;;;;;;5004601;28;20030;-73
2023/03/28 02:21:19;;;;;;;2.27;0.70;;;1.90;99.90;;;;;;5005644;28;20454;-70
2023/03/28 02:23:49;;;;;;;5.30;1.27;;;1.80;99.90;;;;;;5005001;28;20363;-71
2023/03/28 02:26:16;;;;;;;2.85;0.93;;;1.80;99.90;;;;;;5003541;28;20507;-72
2023/03/28 02:28:44;;;;;;;2.35;0.63;;;1.80;99.90;;;;;;5003473;28;20094;-73
2023/03/28 02:31:12;;;;;;;4.93;0.80;;;1.80;99.90;;;;;;5033704;28;20028;-72
2023/03/28 02:33:41;;;;;;;3.65;0.70;;;1.80;99.90;;;;;;5030983;28;20183;-73
2023/03/28 02:36:45;;;;;;;4.55;0.88;;;1.80;99.90;;;;;;5005278;28;20498;-73
2023/03/28 02:39:32;;;;;;;4.43;0.70;;;1.70;99.90;;;;;;5028845;28;20083;-71
2023/03/28 02:42:24;;;;;;;3.40;0.60;;;1.70;99.90;;;;;;5007962;28;20041;-72
2023/03/28 02:45:11;;;;;;;3.08;0.75;;;1.70;99.90;;;;;;5005936;28;20021;-72
2023/03/28 02:48:02;;;;;;;3.92;1.00;;;1.70;99.90;;;;;;5006394;28;20065;-73
2023/03/28 02:50:37;;;;;;;4.07;1.00;;;1.60;99.90;;;;;;5004779;28;20505;-73
2023/03/28 02:53:21;;;;;;;3.58;0.80;;;1.60;99.90;;;;;;5030662;28;20073;-73
2023/03/28 02:55:57;;;;;;;1.80;0.90;;;1.60;99.90;;;;;;5022751;28;20160;-72
2023/03/28 02:58:33;;;;;;;4.25;0.70;;;1.60;99.90;;;;;;5005908;28;20038;-73
2023/03/28 03:01:05;;;;;;;3.10;0.90;;;1.60;99.90;;;;;;5007038;28;20049;-73
2023/03/28 03:03:35;;;;;;;2.83;0.70;;;1.60;99.90;;;;;;5002672;28;20057;-72
2023/03/28 03:06:03;;;;;;;2.80;0.82;;;1.60;99.90;;;;;;5003113;28;20521;-72
2023/03/28 03:08:30;;;;;;;4.60;0.68;;;1.50;99.90;;;;;;5002175;28;20172;-72
2023/03/28 03:10:56;;;;;;;2.60;0.60;;;1.50;99.90;;;;;;5008562;28;20107;-73
2023/03/28 03:13:22;;;;;;;2.47;0.63;;;1.50;99.90;;;;;;5004301;28;20033;-74
2023/03/28 03:15:48;;;;;;;2.97;1.10;;;1.50;99.90;;;;;;5006466;28;20046;-73
2023/03/28 03:18:15;;;;;;;3.78;0.70;;;1.50;99.90;;;;;;5003983;28;20033;-72
2023/03/28 03:20:44;;;;;;;2.20;0.63;;;1.50;99.90;;;;;;5003230;28;20083;-71
2023/03/28 03:23:11;;;;;;;2.20;0.63;;;1.50;99.90;;;;;;5005121;28;20509;-72
2023/03/28 03:25:37;;;;;;;1.88;0.70;;;1.40;99.90;;;;;;5003785;28;20026;-72
2023/03/28 03:28:03;;;;;;;2.10;0.52;;;1.50;99.90;;;;;;5002766;28;20115;-73
2023/03/28 03:30:29;;;;;;;2.95;0.75;;;1.40;99.90;;;;;;5006386;28;20033;-72
2023/03/28 03:32:56;;;;;;;3.38;0.85;;;1.50;99.90;;;;;;5001083;28;20033;-71
2023/03/28 03:35:22;;;;;;;1.92;0.80;;;1.50;99.90;;;;;;5021648;28;20038;-73
2023/03/28 03:37:48;;;;;;;3.85;1.42;;;1.40;99.90;;;;;;5006851;28;20037;-73
2023/03/28 03:40:14;;;;;;;1.77;0.63;;;1.30;99.90;;;;;;5004749;28;20041;-72
2023/03/28 03:42:40;;;;;;;2.22;0.60;;;1.30;99.90;;;;;;5005369;28;20026;-72
2023/03/28 03:45:06;;;;;;;1.85;0.77;;;1.20;99.90;;;;;;5005030;28;20068;-72
2023/03/28 03:47:32;;;;;;;1.05;0.68;;;1.30;99.90;;;;;;5007896;28;20026;-71
2023/03/28 03:49:58;;;;;;;1.88;0.68;;;1.30;99.90;;;;;;5006660;28;20108;-72
2023/03/28 03:52:24;;;;;;;2.45;0.75;;;1.30;99.90;;;;;;5002949;28;20061;-72
2023/03/28 03:54:50;;;;;;;3.88;0.50;;;1.30;99.90;;;;;;5004821;28;20442;-73
2023/03/28 03:57:16;;;;;;;4.38;0.70;;;1.40;99.90;;;;;;5028198;28;20133;-72
2023/03/28 03:59:42;;;;;;;1.38;0.52;;;1.30;99.90;;;;;;4998891;28;20131;-73
2023/03/28 04:02:08;;;;;;;2.15;0.68;;;1.30;99.90;;;;;;5001742;28;20053;-74
2023/03/28 04:04:33;;;;;;;1.42;0.60;;;1.30;99.90;;;;;;5000765;28;20041;-72
2023/03/28 04:07:01;;;;;;;1.65;0.70;;;1.30;99.90;;;;;;5003857;28;20065;-73
2023/03/28 04:09:27;;;;;;;1.73;1.15;;;1.30;99.90;;;;;;5004206;28;20026;-73
2023/03/28 04:11:57;;;;;;;1.20;0.70;;;1.30;99.90;;;;;;5000391;28;20082;-72
2023/03/28 04:14:24;;;;;;;3.08;0.70;;;1.40;99.90;;;;;;5002237;28;20026;-72
2023/03/28 04:16:49;;;;;;;3.83;0.80;;;1.40;99.90;;;;;;5003935;28;20569;-73
2023/03/28 04:19:24;;;;;;;1.85;0.70;;;1.40;99.90;;;;;;5001253;28;20152;-72
2023/03/28 04:21:51;;;;;;;2.53;0.85;;;1.40;99.90;;;;;;5006505;28;20041;-72
2023/03/28 04:24:23;;;;;;;4.65;0.90;;;1.40;99.90;;;;;;4997525;28;20094;-72
2023/03/28 04:26:54;;;;;;;1.02;0.52;;;1.40;99.90;;;;;;5006059;28;20022;-71
2023/03/28 04:29:29;;;;;;;4.10;0.90;;;1.40;99.90;;;;;;5006485;28;20073;-72
2023/03/28 04:31:58;;;;;;;3.75;1.25;;;1.40;99.90;;;;;;5002568;28;20026;-73
2023/03/28 04:34:28;;;;;;;5.07;1.20;;;1.40;99.90;;;;;;5002608;28;20905;-72
2023/03/28 04:37:00;;;;;;;4.40;0.90;;;1.40;99.90;;;;;;5001801;28;20037;-72
2023/03/28 04:39:27;;;;;;;6.82;1.10;;;1.50;99.90;;;;;;5004782;28;20091;-72
2023/03/28 04:41:54;;;;;;;6.03;1.40;;;1.50;99.90;;;;;;5005597;28;20022;-72
2023/03/28 04:44:21;;;;;;;4.40;1.40;;;1.40;99.90;;;;;;5022803;28;20085;-72
2023/03/28 04:46:50;;;;;;;6.38;1.30;;;1.50;99.90;;;;;;5001703;28;20030;-72
2023/03/28 04:49:17;;;;;;;7.60;1.45;;;1.50;99.90;;;;;;5004126;28;20014;-72
2023/03/28 04:51:42;;;;;;;5.63;1.42;;;1.50;99.90;;;;;;5002113;28;20494;-72
2023/03/28 04:54:08;;;;;;;6.50;1.23;;;1.50;99.90;;;;;;5014502;28;20034;-71
2023/03/28 04:56:35;;;;;;;6.78;1.58;;;1.40;99.90;;;;;;5004438;28;20026;-73
2023/03/28 04:59:01;;;;;;;6.75;1.90;;;1.40;99.90;;;;;;5008081;28;20038;-73
2023/03/28 05:01:26;;;;;;;5.22;1.50;;;1.40;99.90;;;;;;5002189;28;20399;-72
2023/03/28 05:03:52;;;;;;;5.88;1.80;;;1.40;99.90;;;;;;5004127;28;20038;-73
2023/03/28 05:06:18;;;;;;;8.35;1.60;;;1.50;99.90;;;;;;5007040;28;20030;-73
2023/03/28 05:08:44;;;;;;;4.63;1.38;;;1.40;99.90;;;;;;5004269;28;20033;-73
2023/03/28 05:11:10;;;;;;;8.45;3.10;;;1.50;99.90;;;;;;5007114;28;20506;-74
2023/03/28 05:13:36;;;;;;;5.03;1.17;;;1.50;99.90;;;;;;5004162;28;20107;-73
2023/03/28 05:16:02;;;;;;;4.05;1.10;;;1.50;99.90;;;;;;5004449;28;20161;-72
2023/03/28 05:18:27;;;;;;;5.97;1.15;;;1.50;99.90;;;;;;5004519;28;20113;-73
2023/03/28 05:20:53;;;;;;;4.35;1.08;;;1.50;99.90;;;;;;5005655;28;20551;-75
2023/03/28 05:23:19;;;;;;;4.25;1.27;;;1.50;99.90;;;;;;5006235;28;20044;-77
2023/03/28 05:25:50;;;;;;;4.75;1.17;;;1.50;99.90;;;;;;5003776;28;20177;-76
2023/03/28 05:28:16;;;;;;;5.95;1.35;;;1.50;99.90;;;;;;5033429;28;20053;-72
2023/03/28 05:30:42;;;;;;;13.23;1.83;;;1.50;99.90;;;;;;5007968;28;20785;-71
2023/03/28 05:33:07;;;;;;;3.58;0.95;;;1.50;99.90;;;;;;5007317;28;20026;-72
2023/03/28 05:35:33;;;;;;;10.35;1.92;;;1.50;99.90;;;;;;5011623;28;20041;-76
2023/03/28 05:38:00;;;;;;;12.65;1.55;;;1.50;99.90;;;;;;5002155;28;20032;-71
2023/03/28 05:40:25;;;;;;;16.70;1.50;;;1.50;99.90;;;;;;5004870;28;20033;-73
2023/03/28 05:42:51;;;;;;;8.52;1.45;;;1.50;99.90;;;;;;5004906;28;20133;-73
2023/03/28 05:45:17;;;;;;;4.80;1.55;;;1.60;99.90;;;;;;5000840;28;20109;-73
2023/03/28 05:47:43;;;;;;;15.05;2.13;;;1.60;99.90;;;;;;4994128;28;20026;-73
2023/03/28 05:50:09;;;;;;;7.68;1.17;;;1.60;99.90;;;;;;4992716;28;20495;-72
2023/03/28 05:52:35;;;;;;;6.45;1.55;;;1.60;99.90;;;;;;4995927;28;20077;-76
2023/03/28 05:55:01;;;;;;;6.45;1.52;;;1.60;99.90;;;;;;4995720;28;20475;-74
2023/03/28 05:57:28;;;;;;;6.70;1.15;;;1.70;99.90;;;;;;4997508;28;20037;-73
2023/03/28 05:59:53;;;;;;;6.55;1.60;;;1.70;99.90;;;;;;4994308;28;20041;-72
2023/03/28 06:02:20;;;;;;;9.98;1.77;;;1.80;99.90;;;;;;4996811;28;20514;-72
2023/03/28 06:04:46;;;;;;;7.50;2.03;;;1.80;99.90;;;;;;5003347;28;20033;-73
2023/03/28 06:07:12;;;;;;;12.48;1.98;;;1.90;99.90;;;;;;4999984;28;20025;-73
2023/03/28 06:09:39;;;;;;;10.25;1.85;;;2.00;99.90;;;;;;5002800;28;20033;-74
2023/03/28 06:12:06;;;;;;;11.30;1.70;;;2.10;99.90;;;;;;5009597;28;20022;-73
2023/03/28 06:14:31;;;;;;;8.75;1.60;;;2.20;99.90;;;;;;5007994;28;20030;-71
2023/03/28 06:16:57;;;;;;;14.00;2.28;;;2.30;99.90;;;;;;5033224;28;20048;-73
2023/03/28 06:19:24;;;;;;;9.70;2.17;;;2.30;99.90;;;;;;4999841;28;20509;-73
2023/03/28 06:21:50;;;;;;;14.20;2.22;;;2.30;99.90;;;;;;5003181;28;20026;-72
2023/03/28 06:24:16;;;;;;;6.53;1.95;;;2.40;99.90;;;;;;5014755;28;20049;-70
2023/03/28 06:26:41;;;;;;;7.25;2.03;;;2.30;99.90;;;;;;5032024;28;20057;-72
2023/03/28 06:29:07;;;;;;;8.13;1.80;;;2.40;99.90;;;;;;5006753;28;20026;-74
2023/03/28 06:31:33;;;;;;;11.75;2.80;;;2.40;99.90;;;;;;5005120;28;20025;-72
2023/03/28 06:33:59;;;;;;;11.80;2.47;;;2.40;99.90;;;;;;5006587;28;20040;-73
2023/03/28 06:36:25;;;;;;;9.88;2.58;;;2.50;99.90;;;;;;5020290;28;20040;-75
2023/03/28 06:38:52;;;;;;;6.20;2.63;;;2.50;99.90;;;;;;5008005;28;20029;-72
2023/03/28 06:41:18;;;;;;;15.43;2.67;;;2.50;99.90;;;;;;5008482;28;20033;-74
2023/03/28 06:43:45;;;;;;;8.25;2.10;;;2.60;99.90;;;;;;5018441;28;20030;-73
2023/03/28 06:46:12;;;;;;;11.85;1.60;;;2.60;99.90;;;;;;5004384;28;20564;-74
2023/03/28 06:48:38;;;;;;;7.72;2.05;;;2.70;99.90;;;;;;5037719;28;20828;-73
2023/03/28 06:51:04;;;;;;;9.02;2.15;;;2.70;99.90;;;;;;5007528;28;20153;-74
2023/03/28 06:53:31;;;;;;;8.30;1.80;;;2.70;99.90;;;;;;5005117;28;20038;-75
2023/03/28 06:55:58;;;;;;;4.63;1.70;;;2.80;99.90;;;;;;5004781;28;20073;-71
2023/03/28 06:58:24;;;;;;;9.68;1.77;;;2.80;99.90;;;;;;5006236;28;20068;-72
2023/03/28 07:00:54;;;;;;;5.80;1.90;;;2.90;99.90;;;;;;5006033;28;20042;-73
2023/03/28 07:03:20;;;;;;;10.88;2.28;;;2.90;99.90;;;;;;5004169;28;20494;-73
2023/03/28 07:05:45;;;;;;;12.18;2.08;;;3.00;99.90;;;;;;5006336;28;20040;-75
2023/03/28 07:08:12;;;;;;;5.72;1.60;;;3.00;99.90;;;;;;5007311;28;20654;-73
2023/03/28 07:10:39;;;;;;;12.50;2.00;;;3.10;99.90;;;;;;5011108;28;20025;-74
2023/03/28 07:13:06;;;;;;;5.50;1.70;;;3.10;99.90;;;;;;5033714;28;20129;-74
2023/03/28 07:15:32;;;;;;;12.50;2.03;;;3.10;99.90;;;;;;5007041;28;20065;-72
2023/03/28 07:17:58;;;;;;;9.23;2.35;;;3.20;99.90;;;;;;5009529;28;20030;-74
2023/03/28 07:20:24;;;;;;;8.93;1.58;;;3.30;99.90;;;;;;5009638;28;20045;-75
2023/03/28 07:22:50;;;;;;;15.25;1.67;;;3.30;99.90;;;;;;5008981;28;20034;-74
2023/03/28 07:25:16;;;;;;;10.85;1.45;;;3.40;99.90;;;;;;5039100;28;20018;-72
2023/03/28 07:27:42;;;;;;;7.15;1.33;;;3.40;99.90;;;;;;5007161;28;20018;-74
2023/03/28 07:30:08;;;;;;;15.70;1.90;;;3.50;99.90;;;;;;5017385;28;20044;-75
2023/03/28 07:32:35;;;;;;;14.05;2.58;;;3.60;99.90;;;;;;5022609;28;20436;-74
2023/03/28 07:35:02;;;;;;;14.95;2.10;;;3.60;99.90;;;;;;5020413;28;20044;-74
2023/03/28 07:37:28;;;;;;;8.75;1.70;;;3.70;99.90;;;;;;5039053;28;20026;-73
2023/03/28 07:39:55;;;;;;;5.90;1.10;;;3.80;99.90;;;;;;5009386;28;20038;-73
2023/03/28 07:42:22;;;;;;;10.75;1.15;;;3.80;99.90;;;;;;5010620;28;20052;-74
2023/03/28 07:44:47;;;;;;;11.82;1.55;;;3.90;99.90;;;;;;5009429;28;20022;-72
2023/03/28 07:47:13;;;;;;;12.90;1.63;;;3.90;99.90;;;;;;5008986;28;20032;-71
2023/03/28 07:49:39;;;;;;;11.18;1.83;;;4.00;99.90;;;;;;5008433;28;20064;-72
2023/03/28 07:52:05;;;;;;;7.45;1.58;;;4.10;99.90;;;;;;5009102;28;20450;-73
2023/03/28 07:54:32;;;;;;;9.88;1.50;;;4.10;99.90;;;;;;5007797;28;20087;-73
2023/03/28 07:56:58;;;;;;;10.52;2.17;;;4.20;99.90;;;;;;5005772;28;20417;-73
2023/03/28 07:59:24;;;;;;;9.05;1.80;;;4.20;99.90;;;;;;5009107;28;20041;-74
2023/03/28 08:01:51;;;;;;;9.60;1.73;;;4.20;99.90;;;;;;4991030;28;20437;-72
2023/03/28 08:04:17;;;;;;;12.05;1.45;;;4.20;99.90;;;;;;4991550;28;20528;-73
2023/03/28 08:06:44;;;;;;;8.45;1.38;;;4.30;99.90;;;;;;5030426;28;20022;-74
2023/03/28 08:09:15;;;;;;;13.88;1.83;;;4.30;99.90;;;;;;5007899;28;20049;-76
2023/03/28 08:11:42;;;;;;;;;;;4.40;99.90;;;;;;5008768;28;20045;-73
2023/03/28 08:14:12;;;;;;;9.95;1.33;;;4.40;99.90;;;;;;5018399;28;19909;-74
2023/03/28 08:16:39;;;;;;;7.00;1.88;;;4.40;99.90;;;;;;5007110;28;20441;-73
2023/03/28 08:19:05;;;;;;;11.35;1.40;;;4.50;99.90;;;;;;5007962;28;20074;-73
2023/03/28 08:21:31;;;;;;;8.40;1.73;;;4.40;99.90;;;;;;5008680;28;20038;-73
2023/03/28 08:24:01;;;;;;;10.35;1.38;;;4.50;99.90;;;;;;5006655;28;20509;-74
2023/03/28 08:26:27;;;;;;;11.07;1.67;;;4.50;99.90;;;;;;5008342;28;20030;-72
2023/03/28 08:28:57;;;;;;;12.30;1.55;;;4.50;99.90;;;;;;5008459;28;20360;-73
2023/03/28 08:31:24;;;;;;;12.13;2.95;;;4.60;99.90;;;;;;5004282;28;20036;-74
2023/03/28 08:33:52;;;;;;;11.25;2.13;;;4.60;99.90;;;;;;5007540;28;20307;-73
2023/03/28 08:36:20;;;;;;;5.70;1.27;;;4.70;99.90;;;;;;5008221;28;20686;-73
2023/03/28 08:38:48;;;;;;;6.00;1.02;;;4.80;99.90;;;;;;5005284;28;20490;-75
2023/03/28 08:41:43;;;;;;;8.95;1.52;;;4.90;99.90;;;;;;5006044;28;20042;-72
2023/03/28 08:44:34;;;;;;;11.98;1.50;;;5.10;99.90;;;;;;5004824;28;20088;-73
2023/03/28 08:47:35;;;;;;;7.70;1.17;;;5.30;99.90;;;;;;5012764;28;20615;-73
2023/03/28 08:50:06;;;;;;;;;;;5.50;99.90;;;;;;4983512;28;20046;-73
2023/03/28 08:52:31;;;;;;;13.40;1.60;;;5.50;99.90;;;;;;4994102;28;20332;-74
2023/03/28 08:55:01;;;;;;;10.88;1.40;;;5.60;99.90;;;;;;5005345;28;20048;-74
2023/03/28 08:57:32;;;;;;;9.13;2.45;;;5.60;99.90;;;;;;5007205;28;20524;-74
2023/03/28 09:00:22;;;;;;;7.22;1.27;;;5.60;99.90;;;;;;5005669;28;20118;-73
2023/03/28 09:02:49;;;;;;;16.70;2.15;;;5.60;99.90;;;;;;5008393;28;20084;-74
2023/03/28 09:05:18;;;;;;;4.88;1.38;;;5.50;99.90;;;;;;5035326;28;20030;-74
2023/03/28 09:07:55;;;;;;;5.60;1.48;;;5.50;99.90;;;;;;5007276;28;20026;-74
2023/03/28 09:10:46;;;;;;;8.80;2.30;;;5.50;99.90;;;;;;5003981;28;20030;-73
2023/03/28 09:13:27;;;;;;;8.98;1.63;;;5.50;99.90;;;;;;5004793;28;20141;-74
2023/03/28 09:16:05;;;;;;;13.18;1.55;;;5.50;99.90;;;;;;5007861;28;20104;-74
2023/03/28 09:19:02;;;;;;;16.17;1.95;;;5.40;99.90;;;;;;5007948;28;20034;-74
2023/03/28 09:21:39;;;;;;;8.20;1.40;;;5.50;99.90;;;;;;5005370;28;20452;-73
2023/03/28 09:24:34;;;;;;;13.68;1.70;;;5.60;99.90;;;;;;5007229;28;20038;-72
2023/03/28 09:27:21;;;;;;;8.30;1.48;;;5.70;99.90;;;;;;5008341;28;20037;-72
2023/03/28 09:29:47;;;;;;;8.88;1.90;;;5.70;99.90;;;;;;5031948;28;20025;-74
2023/03/28 09:32:27;;;;;;;10.02;1.92;;;5.90;99.90;;;;;;5007594;28;20029;-77
2023/03/28 09:34:53;;;;;;;6.03;1.52;;;6.10;99.90;;;;;;5006867;28;20022;-73
2023/03/28 09:37:40;;;;;;;6.43;1.13;;;6.20;99.90;;;;;;5008151;28;20037;-75
2023/03/28 09:40:21;;;;;;;8.32;1.00;;;6.20;99.90;;;;;;5011137;28;20051;-74
2023/03/28 09:43:11;;;;;;;7.40;0.80;;;6.20;99.90;;;;;;5010488;28;20465;-74
2023/03/28 09:45:59;;;;;;;3.25;0.73;;;6.10;99.90;;;;;;4992602;28;20059;-73
2023/03/28 09:48:31;;;;;;;3.75;0.90;;;5.90;99.90;;;;;;5026954;28;20036;-72
2023/03/28 09:50:57;;;;;;;7.40;0.88;;;5.80;99.90;;;;;;5010517;28;20038;-73
2023/03/28 09:53:29;;;;;;;4.68;1.05;;;5.80;99.90;;;;;;5010424;28;20057;-72
2023/03/28 09:55:59;;;;;;;4.85;0.80;;;5.80;99.90;;;;;;5008715;28;20351;-73
2023/03/28 09:58:25;;;;;;;9.93;1.20;;;5.90;99.90;;;;;;5008716;28;20029;-73
2023/03/28 10:00:52;;;;;;;4.03;1.00;;;6.00;99.90;;;;;;5007624;28;20030;-73
2023/03/28 10:03:31;;;;;;;6.50;1.00;;;6.20;99.90;;;;;;5011452;28;20034;-73
2023/03/28 10:05:59;;;;;;;4.90;0.80;;;6.50;99.90;;;;;;5010310;28;20034;-74
2023/03/28 10:08:33;;;;;;;6.65;1.00;;;6.70;99.90;;;;;;5009655;28;20037;-74
2023/03/28 10:11:00;;;;;;;4.32;0.93;;;6.90;99.90;;;;;;5010704;28;20564;-72
2023/03/28 10:13:27;;;;;;;5.90;1.15;;;6.90;99.90;;;;;;5005693;28;20521;-74
2023/03/28 10:15:57;;;;;;;12.85;1.13;;;6.90;99.90;;;;;;5004903;28;20033;-74
2023/03/28 10:18:27;;;;;;;10.70;1.55;;;7.00;99.90;;;;;;5010541;28;20029;-73
2023/03/28 10:20:53;;;;;;;6.78;0.90;;;7.20;99.90;;;;;;5013201;28;20021;-73
2023/03/28 10:23:21;;;;;;;5.35;1.23;;;7.20;99.90;;;;;;5010713;28;20037;-74
2023/03/28 10:25:51;;;;;;;6.43;1.50;;;7.10;99.90;;;;;;5010161;28;20030;-73
2023/03/28 10:28:29;;;;;;;5.75;1.20;;;6.90;99.90;;;;;;5006756;28;20033;-73
2023/03/28 10:30:58;;;;;;;7.25;1.42;;;6.70;99.90;;;;;;5004181;28;20026;-75
2023/03/28 10:33:25;;;;;;;7.60;1.38;;;6.70;99.90;;;;;;5011454;28;20113;-76
2023/03/28 10:36:11;;;;;;;4.35;0.88;;;6.70;99.90;;;;;;5009634;28;20376;-73
2023/03/28 10:38:48;;;;;;;7.85;1.77;;;6.60;99.90;;;;;;5009239;28;20409;-74
2023/03/28 10:41:21;;;;;;;7.32;1.33;;;6.60;99.90;;;;;;4992427;28;20037;-73
2023/03/28 10:43:47;;;;;;;7.28;1.00;;;6.70;99.90;;;;;;5009390;28;20060;-75
2023/03/28 10:46:15;;;;;;;6.78;1.30;;;6.80;99.90;;;;;;5008658;28;20026;-76
2023/03/28 10:48:50;;;;;;;7.20;1.30;;;7.00;99.90;;;;;;5031682;28;20025;-76
2023/03/28 10:51:22;;;;;;;4.65;1.40;;;7.10;99.90;;;;;;5033322;28;20030;-75
2023/03/28 10:54:00;;;;;;;6.07;1.35;;;7.10;99.90;;;;;;5006831;28;20033;-76
2023/03/28 10:56:52;;;;;;;4.05;0.90;;;7.00;99.90;;;;;;5012149;28;20065;-77
2023/03/28 10:59:26;;;;;;;;;;;7.10;99.90;;;;;;5011275;28;20103;-78
2023/03/28 11:02:11;;;;;;;7.65;1.20;;;7.00;99.90;;;;;;5010161;28;19914;-75
2023/03/28 11:05:09;;;;;;;5.15;1.00;;;7.00;99.90;;;;;;5011017;28;20030;-79
2023/03/28 11:07:53;;;;;;;7.07;0.98;;;7.00;99.90;;;;;;5015843;28;20076;-73
2023/03/28 11:10:21;;;;;;;6.88;0.95;;;7.00;99.90;;;;;;5006459;28;20096;-73
2023/03/28 11:13:45;;;;;;;8.48;1.48;;;7.40;99.90;;;;;;5009714;28;20113;-73
2023/03/28 11:16:38;;;;;;;6.10;1.40;;;7.80;99.90;;;;;;5003228;28;20029;-74
2023/03/28 11:19:17;;;;;;;6.82;1.30;;;8.20;99.90;;;;;;5009908;28;20640;-73
2023/03/28 11:21:57;;;;;;;6.68;1.30;;;8.20;99.90;;;;;;5007035;28;20876;-73
2023/03/28 11:24:44;;;;;;;7.60;1.45;;;8.10;99.90;;;;;;5008762;28;20033;-75
2023/03/28 11:27:19;;;;;;;8.85;1.05;;;7.90;99.20;;;;;;5031891;28;20417;-75
2023/03/28 11:30:01;;;;;;;9.80;1.83;;;7.90;99.90;;;;;;5005891;28;20117;-73
2023/03/28 11:32:38;;;;;;;7.47;1.58;;;8.00;99.90;;;;;;5033539;28;20022;-74
2023/03/28 11:35:15;;;;;;;11.52;1.20;;;7.80;99.90;;;;;;5009291;28;20030;-73
2023/03/28 11:37:59;;;;;;;7.47;1.13;;;7.80;99.90;;;;;;5012053;28;20030;-73
2023/03/28 11:40:49;;;;;;;9.40;1.35;;;7.70;99.90;;;;;;5005745;28;20033;-74
2023/03/28 11:43:25;;;;;;;6.40;1.38;;;7.70;99.90;;;;;;5007300;28;20103;-76
2023/03/28 11:45:54;;;;;;;5.97;1.10;;;8.20;99.90;;;;;;5008110;28;20034;-74
2023/03/28 11:48:40;;;;;;;1883.18;838.88;;;8.50;99.90;;;;;;5006179;28;20155;-73
2023/03/28 11:51:46;;;;;;;138.90;86.82;;;8.90;99.90;;;;;;5006635;28;20069;-74
2023/03/28 11:54:21;;;;;;;338.60;205.18;;;9.20;99.90;;;;;;5002608;28;20185;-72
2023/03/28 11:56:59;;;;;;;11.52;3.72;;;9.30;99.90;;;;;;5030247;28;20447;-73
2023/03/28 11:59:49;;;;;;;6.78;1.40;;;9.40;99.90;;;;;;5010071;28;20497;-75
2023/03/28 12:02:34;;;;;;;3.38;0.93;;;9.30;99.90;;;;;;5005292;28;20029;-75
2023/03/28 12:05:04;;;;;;;3.80;1.20;;;9.20;99.90;;;;;;5008745;28;20030;-73
2023/03/28 12:07:36;;;;;;;5.45;1.20;;;9.20;99.90;;;;;;5014616;28;20026;-74
2023/03/28 12:10:40;;;;;;;9.30;1.30;;;8.90;99.90;;;;;;5006313;28;20283;-73
2023/03/28 12:13:10;;;;;;;10.18;1.38;;;8.60;99.90;;;;;;4984446;28;20038;-73
2023/03/28 12:15:42;;;;;;;10.95;1.67;;;8.40;99.90;;;;;;5005951;28;21068;-73
2023/03/28 12:18:18;;;;;;;5.07;1.13;;;8.20;99.90;;;;;;5007573;28;20049;-73
2023/03/28 12:20:51;;;;;;;2.72;1.02;;;8.10;99.90;;;;;;5029225;28;20026;-72
2023/03/28 12:23:49;;;;;;;8.63;1.40;;;7.90;99.90;;;;;;5004733;28;20026;-73
2023/03/28 12:26:34;;;;;;;10.48;1.63;;;7.60;99.90;;;;;;4981619;28;20137;-74
2023/03/28 12:29:16;;;;;;;4.07;1.20;;;7.40;99.90;;;;;;5008663;28;20549;-73
2023/03/28 12:31:48;;;;;;;6.60;1.40;;;7.40;99.90;;;;;;5001345;28;20495;-74
2023/03/28 12:34:25;;;;;;;7.57;1.98;;;7.40;99.90;;;;;;5034746;28;20560;-73
2023/03/28 12:37:18;;;;;;;6.50;1.30;;;7.30;99.90;;;;;;5009018;28;20102;-73
2023/03/28 12:40:11;;;;;;;7.20;1.30;;;7.10;99.90;;;;;;5007005;28;20038;-73
2023/03/28 12:42:40;;;;;;;7.75;1.52;;;7.00;99.90;;;;;;5009031;28;20029;-75
2023/03/28 12:45:13;;;;;;;6.85;1.48;;;6.90;99.90;;;;;;5006713;28;20026;-74
2023/03/28 12:47:44;;;;;;;7.13;1.48;;;6.90;99.90;;;;;;5007369;28;20033;-73
2023/03/28 12:50:28;;;;;;;6.57;1.02;;;6.80;99.90;;;;;;5007509;28;20026;-74
2023/03/28 12:52:55;;;;;;;5.57;1.10;;;6.60;99.90;;;;;;5007614;28;20137;-74
2023/03/28 12:55:25;;;;;;;5.88;1.00;;;6.50;99.90;;;;;;4990159;28;20117;-75
2023/03/28 12:58:11;;;;;;;9.83;1.87;;;6.40;99.90;;;;;;5009160;28;20117;-76
2023/03/28 13:01:08;;;;;;;3.40;1.23;;;6.40;99.90;;;;;;4989818;28;20708;-73
2023/03/28 13:04:05;;;;;;;3.55;1.02;;;6.40;99.90;;;;;;5007715;28;20030;-73
2023/03/28 13:06:56;;;;;;;5.85;1.67;;;6.40;99.90;;;;;;5007217;28;20490;-74
2023/03/28 13:09:40;;;;;;;9.70;1.60;;;6.40;99.90;;;;;;5009391;28;20056;-74
2023/03/28 13:12:25;;;;;;;7.60;1.55;;;6.50;99.90;;;;;;5011385;28;20022;-74
2023/03/28 13:15:12;;;;;;;6.47;1.50;;;6.50;99.90;;;;;;5018542;28;20033;-74
2023/03/28 13:17:45;;;;;;;8.73;1.58;;;6.70;99.90;;;;;;5033114;28;20486;-74
2023/03/28 13:20:14;;;;;;;6.18;1.55;;;6.80;99.90;;;;;;5012038;28;20029;-73
2023/03/28 13:22:40;;;;;;;5.20;1.20;;;6.90;99.90;;;;;;5013835;28;20026;-73
2023/03/28 13:25:19;;;;;;;6.55;1.35;;;6.90;99.90;;;;;;5012363;28;20037;-78